Time;durP1;ratioP1;P1;durP2;ratioP2;P2;SDS_P1;SDS_P2;PMS_P1;PMS_P2;Temp;Humidity;BMP_temperature;BMP_pressure;BME280_temperature;BME280_humidity;BME280_pressure;Samples;Min_cycle;Max_cycle;Signal;HPM_P1;HPM_P2
2024/01/06 00:02:05;;;;;;;;;;;1.80;99.90;;;;;;5100845;27;20293;-61
2024/01/06 00:04:31;;;;;;;;;;;1.70;99.90;;;;;;5088228;27;19931;-62
2024/01/06 00:06:57;;;;;;;;;;;1.70;99.90;;;;;;5082556;27;20396;-62
2024/01/06 00:09:23;;;;;;;;;;;1.70;99.90;;;;;;5083592;27;19927;-61
2024/01/06 00:11:48;;;;;;;;;;;1.70;99.90;;;;;;5076745;27;20601;-61
2024/01/06 00:14:14;;;;;;;;;;;1.70;99.90;;;;;;5084457;27;19919;-62
2024/01/06 00:16:40;;;;;;;;;;;1.70;99.90;;;;;;5081782;27;19928;-61
2024/01/06 00:19:05;;;;;;;;;;;1.70;99.90;;;;;;5084312;27;19928;-61
2024/01/06 00:21:31;;;;;;;;;;;1.70;99.90;;;;;;5074979;27;20102;-61
2024/01/06 00:23:56;;;;;;;;;;;1.70;99.90;;;;;;5074542;27;20451;-62
2024/01/06 00:26:22;;;;;;;;;;;1.70;99.90;;;;;;5078818;27;19931;-62
2024/01/06 00:28:49;;;;;;;;;;;1.70;99.90;;;;;;5077855;27;19969;-62
2024/01/06 00:31:16;;;;;;;;;;;1.70;99.90;;;;;;5078511;27;20294;-61
2024/01/06 00:33:42;;;;;;;;;;;1.70;99.90;;;;;;5066412;27;19928;-61
2024/01/06 00:36:08;;;;;;;;;;;1.70;99.90;;;;;;5064047;27;20388;-62
2024/01/06 00:38:34;;;;;;;;;;;1.70;99.90;;;;;;5083713;28;19933;-62
2024/01/06 00:41:01;;;;;;;;;;;1.70;99.90;;;;;;5081298;27;19927;-62
2024/01/06 00:43:26;;;;;;;;;;;1.70;99.90;;;;;;5079485;27;19931;-61
2024/01/06 00:45:52;;;;;;;;;;;1.70;99.90;;;;;;5082291;27;20342;-61
2024/01/06 00:48:17;;;;;;;;;;;1.60;99.90;;;;;;5084963;27;20394;-61
2024/01/06 00:50:43;;;;;;;;;;;1.60;99.90;;;;;;5065376;28;20373;-61
2024/01/06 00:53:09;;;;;;;;;;;1.60;99.90;;;;;;5062204;28;19935;-62
2024/01/06 00:55:34;;;;;;;;;;;1.60;99.90;;;;;;5060838;28;19928;-62
2024/01/06 00:58:00;;;;;;;;;;;1.60;99.90;;;;;;5058214;28;19967;-62
2024/01/06 01:00:27;;;;;;;;;;;1.60;99.90;;;;;;5072205;28;20370;-62
2024/01/06 01:02:52;;;;;;;;;;;1.60;99.90;;;;;;5067383;28;19928;-63
2024/01/06 01:05:18;;;;;;;;;;;1.60;99.90;;;;;;5042357;28;20381;-62
2024/01/06 01:07:44;;;;;;;;;;;1.60;99.90;;;;;;5054195;28;19927;-61
2024/01/06 01:10:09;;;;;;;;;;;1.70;99.90;;;;;;5060599;28;20050;-62
2024/01/06 01:12:35;;;;;;;;;;;1.60;99.90;;;;;;5053638;28;19924;-62
2024/01/06 01:15:01;;;;;;;;;;;1.60;99.90;;;;;;5070273;28;19927;-62
2024/01/06 01:17:26;;;;;;;;;;;1.60;99.90;;;;;;5054265;28;20409;-62
2024/01/06 01:19:52;;;;;;;;;;;1.60;99.90;;;;;;5061363;28;19928;-62
2024/01/06 01:22:17;;;;;;;;;;;1.60;99.90;;;;;;5076621;28;19977;-62
2024/01/06 01:24:43;;;;;;;;;;;1.60;99.90;;;;;;5063104;28;20333;-62
2024/01/06 01:27:09;;;;;;;;;;;1.50;99.90;;;;;;5072246;28;20562;-62
2024/01/06 01:29:34;;;;;;;;;;;1.50;99.90;;;;;;5056079;28;19928;-63
2024/01/06 01:32:00;;;;;;;;;;;1.50;99.90;;;;;;5060309;28;20841;-63
2024/01/06 01:34:26;;;;;;;;;;;1.50;99.90;;;;;;5053429;28;19923;-62
2024/01/06 01:36:51;;;;;;;;;;;1.50;99.90;;;;;;5054172;28;19924;-63
2024/01/06 01:39:17;;;;;;;;;;;1.50;99.90;;;;;;5056175;28;19969;-62
2024/01/06 01:41:43;;;;;;;;;;;1.50;99.90;;;;;;5056859;28;19928;-63
2024/01/06 01:44:08;;;;;;;;;;;1.50;99.90;;;;;;5075073;28;19932;-63
2024/01/06 01:46:34;;;;;;;;;;;1.50;99.90;;;;;;5060596;28;19974;-62
2024/01/06 01:49:00;;;;;;;;;;;1.40;99.90;;;;;;5069741;28;19920;-61
2024/01/06 01:51:30;;;;;;;;;;;1.40;99.90;;;;;;5072688;28;20000;-63
2024/01/06 01:53:57;;;;;;;;;;;1.40;99.90;;;;;;5093263;28;19928;-62
2024/01/06 01:56:23;;;;;;;;;;;1.40;99.90;;;;;;5100832;28;19927;-61
2024/01/06 01:58:48;;;;;;;;;;;1.30;99.90;;;;;;5076826;28;19998;-62
2024/01/06 02:01:15;;;;;;;;;;;1.30;99.90;;;;;;5067350;28;19927;-63
2024/01/06 02:03:43;;;;;;;;;;;1.30;99.90;;;;;;5072583;28;20385;-63
2024/01/06 02:06:09;;;;;;;;;;;1.40;99.90;;;;;;5077166;28;20042;-61
2024/01/06 02:08:34;;;;;;;;;;;1.30;99.90;;;;;;5066570;28;19955;-63
2024/01/06 02:11:00;;;;;;;;;;;1.30;99.90;;;;;;5073566;28;19977;-63
2024/01/06 02:13:33;;;;;;;;;;;1.30;99.90;;;;;;5075075;28;19932;-62
2024/01/06 02:15:58;;;;;;;;;;;1.20;99.90;;;;;;5079529;28;20430;-62
2024/01/06 02:18:24;;;;;;;;;;;1.20;99.90;;;;;;5079697;28;19932;-62
2024/01/06 02:20:49;;;;;;;;;;;1.20;99.90;;;;;;5073529;28;19919;-62
2024/01/06 02:23:15;;;;;;;;;;;1.30;99.90;;;;;;5075638;28;19975;-62
2024/01/06 02:25:41;;;;;;;;;;;1.20;99.90;;;;;;5075100;28;19939;-62
2024/01/06 02:28:06;;;;;;;;;;;1.20;99.90;;;;;;5094258;27;19927;-62
2024/01/06 02:30:32;;;;;;;;;;;1.20;99.90;;;;;;5073581;28;20318;-62
2024/01/06 02:32:57;;;;;;;;;;;1.20;99.90;;;;;;5076981;28;19979;-61
2024/01/06 02:35:23;;;;;;;;;;;1.20;99.90;;;;;;5071570;28;19928;-62
2024/01/06 02:37:48;;;;;;;;;;;1.20;99.90;;;;;;5079613;28;19928;-62
2024/01/06 02:40:14;;;;;;;;;;;1.20;99.90;;;;;;5069196;28;20218;-63
2024/01/06 02:42:40;;;;;;;;;;;1.20;99.90;;;;;;5080961;28;20450;-63
2024/01/06 02:45:07;;;;;;;;;;;1.20;99.90;;;;;;5081420;28;19977;-63
2024/01/06 02:47:32;;;;;;;;;;;1.20;99.90;;;;;;5081960;28;20015;-61
2024/01/06 02:49:58;;;;;;;;;;;1.30;99.90;;;;;;5074899;28;20548;-62
2024/01/06 02:52:24;;;;;;;;;;;1.20;99.90;;;;;;5062873;28;19924;-62
2024/01/06 02:54:49;;;;;;;;;;;1.20;99.90;;;;;;5059099;28;21347;-62
2024/01/06 02:57:15;;;;;;;;;;;1.20;99.90;;;;;;5043722;28;19928;-63
2024/01/06 02:59:41;;;;;;;;;;;1.20;99.90;;;;;;5061315;28;19977;-62
2024/01/06 03:02:07;;;;;;;;;;;1.20;99.90;;;;;;5044832;28;20414;-62
2024/01/06 03:04:32;;;;;;;;;;;1.20;99.90;;;;;;5057115;28;19967;-62
2024/01/06 03:06:58;;;;;;;;;;;1.20;99.90;;;;;;5058322;28;19924;-62
2024/01/06 03:09:23;;;;;;;;;;;1.20;99.90;;;;;;5071167;28;26347;-63
2024/01/06 03:11:49;;;;;;;;;;;1.20;99.90;;;;;;5073239;28;19923;-62
2024/01/06 03:14:15;;;;;;;;;;;1.20;99.90;;;;;;5056742;28;19996;-63
2024/01/06 03:16:40;;;;;;;;;;;1.10;99.90;;;;;;5059715;28;19927;-63
2024/01/06 03:19:06;;;;;;;;;;;1.10;99.90;;;;;;5042205;28;19924;-63
2024/01/06 03:21:32;;;;;;;;;;;1.10;99.90;;;;;;5076807;28;20339;-62
2024/01/06 03:23:57;;;;;;;;;;;1.10;99.90;;;;;;5077941;28;20367;-62
2024/01/06 03:26:23;;;;;;;;;;;1.10;99.90;;;;;;5076985;28;20409;-62
2024/01/06 03:28:49;;;;;;;;;;;1.10;99.90;;;;;;5078153;28;19973;-61
2024/01/06 03:31:14;;;;;;;;;;;1.10;99.90;;;;;;5058922;28;20073;-62
2024/01/06 03:33:40;;;;;;;;;;;1.10;99.90;;;;;;5054935;28;19920;-63
2024/01/06 03:36:06;;;;;;;;;;;1.10;99.90;;;;;;5055261;28;20306;-62
2024/01/06 03:38:32;;;;;;;;;;;1.10;99.90;;;;;;5059479;28;19934;-62
2024/01/06 03:40:57;;;;;;;;;;;1.10;99.90;;;;;;5056166;28;20382;-63
2024/01/06 03:43:23;;;;;;;;;;;1.10;99.90;;;;;;5054995;28;19927;-63
2024/01/06 03:45:48;;;;;;;;;;;1.10;99.90;;;;;;5061311;28;20403;-62
2024/01/06 03:48:14;;;;;;;;;;;1.10;99.90;;;;;;5057185;28;19924;-62
2024/01/06 03:50:40;;;;;;;;;;;1.10;99.90;;;;;;5065622;28;20522;-63
2024/01/06 03:53:05;;;;;;;;;;;1.10;99.90;;;;;;5076028;28;19951;-63
2024/01/06 03:55:31;;;;;;;;;;;1.10;99.90;;;;;;5069637;28;19936;-62
2024/01/06 03:57:56;;;;;;;;;;;1.10;99.90;;;;;;5072778;28;20495;-62
2024/01/06 04:00:23;;;;;;;;;;;1.20;99.90;;;;;;5064599;28;20518;-61
2024/01/06 04:02:48;;;;;;;;;;;1.20;99.90;;;;;;5085145;28;19928;-62
2024/01/06 04:05:14;;;;;;;;;;;1.10;99.90;;;;;;5063169;28;19984;-62
2024/01/06 04:07:40;;;;;;;;;;;1.10;99.90;;;;;;5093698;27;19930;-63
2024/01/06 04:10:05;;;;;;;;;;;1.10;99.90;;;;;;5090002;27;19927;-62
2024/01/06 04:12:31;;;;;;;;;;;1.10;99.90;;;;;;5077388;28;19957;-62
2024/01/06 04:14:56;;;;;;;;;;;1.10;99.90;;;;;;5073627;28;20023;-62
2024/01/06 04:17:22;;;;;;;;;;;1.10;99.90;;;;;;5073470;28;19924;-63
2024/01/06 04:19:48;;;;;;;;;;;1.10;99.90;;;;;;5076076;28;19923;-63
2024/01/06 04:22:13;;;;;;;;;;;1.20;99.90;;;;;;5074529;28;20640;-62
2024/01/06 04:24:40;;;;;;;;;;;1.10;99.90;;;;;;5075385;28;19939;-63
2024/01/06 04:27:06;;;;;;;;;;;1.20;99.90;;;;;;5076477;28;19935;-62
2024/01/06 04:29:32;;;;;;;;;;;1.10;99.90;;;;;;5086177;28;21029;-62
2024/01/06 04:31:57;;;;;;;;;;;1.10;99.90;;;;;;5087869;28;19930;-61
2024/01/06 04:34:23;;;;;;;;;;;1.10;99.90;;;;;;5086690;28;20392;-62
2024/01/06 04:36:50;;;;;;;;;;;1.10;99.90;;;;;;5087602;28;19924;-63
2024/01/06 04:39:15;;;;;;;;;;;1.10;99.90;;;;;;5089245;28;19928;-62
2024/01/06 04:41:41;;;;;;;;;;;1.10;99.90;;;;;;5081077;28;20018;-62
2024/01/06 04:44:06;;;;;;;;;;;1.20;99.90;;;;;;5091979;28;19932;-62
2024/01/06 04:46:32;;;;;;;;;;;1.30;99.90;;;;;;5093786;28;19919;-62
2024/01/06 04:48:58;;;;;;;;;;;1.10;99.90;;;;;;5089820;28;19928;-62
2024/01/06 04:51:24;;;;;;;;;;;1.10;99.90;;;;;;5083550;28;19954;-62
2024/01/06 04:53:49;;;;;;;;;;;1.10;99.90;;;;;;5072827;28;19924;-62
2024/01/06 04:56:15;;;;;;;;;;;1.10;99.90;;;;;;5092355;28;19928;-62
2024/01/06 04:58:40;;;;;;;;;;;1.10;99.90;;;;;;5062637;28;20428;-62
2024/01/06 05:01:06;;;;;;;;;;;1.20;99.90;;;;;;5067074;28;19924;-62
2024/01/06 05:03:31;;;;;;;;;;;1.10;99.90;;;;;;5072236;28;19928;-63
2024/01/06 05:05:57;;;;;;;;;;;1.20;99.90;;;;;;5081790;28;19930;-63
2024/01/06 05:08:23;;;;;;;;;;;1.20;99.90;;;;;;5071243;28;19928;-63
2024/01/06 05:10:49;;;;;;;;;;;1.20;99.90;;;;;;5060592;28;20124;-62
2024/01/06 05:13:14;;;;;;;;;;;1.20;99.90;;;;;;5079786;28;20310;-60
2024/01/06 05:15:40;;;;;;;;;;;1.20;99.90;;;;;;5058405;28;19928;-63
2024/01/06 05:18:05;;;;;;;;;;;1.20;99.90;;;;;;5055106;28;20407;-62
2024/01/06 05:20:31;;;;;;;;;;;1.20;99.90;;;;;;5061370;28;20014;-63
2024/01/06 05:22:57;;;;;;;;;;;1.20;99.90;;;;;;5076809;28;19927;-62
2024/01/06 05:25:22;;;;;;;;;;;1.20;99.90;;;;;;5073186;28;19939;-62
2024/01/06 05:27:48;;;;;;;;;;;1.20;99.90;;;;;;5076357;28;20065;-63
2024/01/06 05:30:13;;;;;;;;;;;1.20;99.90;;;;;;5063380;28;19932;-62
2024/01/06 05:32:39;;;;;;;;;;;1.20;99.90;;;;;;5058301;28;19930;-62
2024/01/06 05:35:05;;;;;;;;;;;1.20;99.90;;;;;;5059009;28;19928;-62
2024/01/06 05:37:31;;;;;;;;;;;1.20;99.90;;;;;;5056583;28;19923;-62
2024/01/06 05:40:01;;;;;;;;;;;1.20;99.90;;;;;;5062280;28;20533;-62
2024/01/06 05:42:26;;;;;;;;;;;1.20;99.90;;;;;;5049521;28;19969;-62
2024/01/06 05:44:52;;;;;;;;;;;1.20;99.90;;;;;;5066256;28;20402;-62
2024/01/06 05:47:18;;;;;;;;;;;1.20;99.90;;;;;;5060898;28;19947;-62
2024/01/06 05:49:46;;;;;;;;;;;1.20;99.90;;;;;;5067642;28;19977;-62
2024/01/06 05:52:12;;;;;;;;;;;1.20;99.90;;;;;;5077469;28;19953;-63
2024/01/06 05:54:42;;;;;;;;;;;1.20;99.90;;;;;;5077677;28;19927;-63
2024/01/06 05:57:07;;;;;;;;;;;1.20;99.90;;;;;;5081271;28;19927;-63
2024/01/06 05:59:33;;;;;;;;;;;1.20;99.90;;;;;;5077880;28;20308;-62
2024/01/06 06:02:00;;;;;;;;;;;1.20;99.90;;;;;;5073326;28;19928;-60
2024/01/06 06:04:25;;;;;;;;;;;1.20;99.90;;;;;;5076331;28;20386;-61
2024/01/06 06:06:51;;;;;;;;;;;1.20;99.90;;;;;;5076048;28;19927;-63
2024/01/06 06:09:16;;;;;;;;;;;1.20;99.90;;;;;;5077826;28;19941;-62
2024/01/06 06:11:42;;;;;;;;;;;1.30;99.90;;;;;;5064462;28;19981;-62
2024/01/06 06:14:08;;;;;;;;;;;1.30;99.90;;;;;;5073167;28;20358;-62
2024/01/06 06:16:34;;;;;;;;;;;1.30;99.90;;;;;;5081539;27;19953;-61
2024/01/06 06:19:00;;;;;;;;;;;1.30;99.90;;;;;;5085767;27;19923;-63
2024/01/06 06:21:25;;;;;;;;;;;1.30;99.90;;;;;;5087999;27;20405;-63
2024/01/06 06:23:51;;;;;;;;;;;1.30;99.90;;;;;;5079762;27;19923;-61
2024/01/06 06:26:17;;;;;;;;;;;1.30;99.90;;;;;;5100467;27;20076;-63
2024/01/06 06:28:42;;;;;;;;;;;1.50;99.90;;;;;;5100232;27;19927;-63
2024/01/06 06:31:08;;;;;;;;;;;1.30;99.90;;;;;;5078735;27;19920;-63
2024/01/06 06:33:33;;;;;;;;;;;1.30;99.90;;;;;;5087370;27;19949;-63
2024/01/06 06:35:59;;;;;;;;;;;1.30;99.90;;;;;;5074259;27;20306;-63
2024/01/06 06:38:25;;;;;;;;;;;1.30;99.90;;;;;;5080597;27;19963;-63
2024/01/06 06:40:51;;;;;;;;;;;1.30;99.90;;;;;;5062770;27;19924;-62
2024/01/06 06:43:16;;;;;;;;;;;1.30;99.90;;;;;;5073847;27;20464;-62
2024/01/06 06:45:42;;;;;;;;;;;1.30;99.90;;;;;;5067686;27;19950;-61
2024/01/06 06:48:07;;;;;;;;;;;1.30;99.90;;;;;;5079263;27;20293;-62
2024/01/06 06:50:33;;;;;;;;;;;1.30;99.90;;;;;;5080791;27;20025;-63
2024/01/06 06:52:59;;;;;;;;;;;1.40;99.90;;;;;;5088374;27;19930;-62
2024/01/06 06:55:25;;;;;;;;;;;1.30;99.90;;;;;;5086673;27;19927;-63
2024/01/06 06:57:50;;;;;;;;;;;1.30;99.90;;;;;;5087406;27;20472;-62
2024/01/06 07:00:17;;;;;;;;;;;1.30;99.90;;;;;;5091867;27;19923;-62
2024/01/06 07:02:42;;;;;;;;;;;1.30;99.90;;;;;;5082580;27;19978;-63
2024/01/06 07:05:08;;;;;;;;;;;1.30;99.90;;;;;;5097269;27;20353;-62
2024/01/06 07:07:34;;;;;;;;;;;1.30;99.90;;;;;;5094010;27;19932;-62
2024/01/06 07:10:04;;;;;;;;;;;1.30;99.90;;;;;;5090256;27;19928;-63
2024/01/06 07:12:33;;;;;;;;;;;1.30;99.90;;;;;;5096052;27;20042;-62
2024/01/06 07:15:02;;;;;;;;;;;1.30;99.90;;;;;;5092878;27;19928;-61
2024/01/06 07:17:27;;;;;;;;;;;1.30;99.90;;;;;;5095024;27;19923;-63
2024/01/06 07:19:53;;;;;;;;;;;1.30;99.90;;;;;;5077638;27;19962;-62
2024/01/06 07:22:19;;;;;;;;;;;1.30;99.90;;;;;;5081304;27;19934;-62
2024/01/06 07:24:45;;;;;;;;;;;1.30;99.90;;;;;;5097497;27;20289;-62
2024/01/06 07:27:11;;;;;;;;;;;1.40;99.90;;;;;;5095912;27;20061;-63
2024/01/06 07:29:37;;;;;;;;;;;1.40;99.90;;;;;;5090423;27;19927;-63
2024/01/06 07:32:03;;;;;;;;;;;1.30;99.90;;;;;;5059975;27;19923;-62
2024/01/06 07:34:28;;;;;;;;;;;1.40;99.90;;;;;;5100747;27;19920;-62
2024/01/06 07:36:54;;;;;;;;;;;1.40;99.90;;;;;;5094689;27;20101;-62
2024/01/06 07:39:20;;;;;;;;;;;1.30;99.90;;;;;;5104961;27;19919;-62
2024/01/06 07:41:46;;;;;;;;;;;1.40;99.90;;;;;;5118739;27;19947;-63
2024/01/06 07:44:15;;;;;;;;;;;1.40;99.90;;;;;;5117916;27;19971;-62
2024/01/06 07:46:41;;;;;;;;;;;1.40;99.90;;;;;;5081651;27;20036;-62
2024/01/06 07:49:07;;;;;;;;;;;1.40;99.90;;;;;;5104418;27;20010;-62
2024/01/06 07:51:34;;;;;;;;;;;1.40;99.90;;;;;;5096054;28;19928;-63
2024/01/06 07:54:01;;;;;;;;;;;1.40;99.90;;;;;;5097394;28;19924;-62
2024/01/06 07:56:26;;;;;;;;;;;1.40;99.90;;;;;;5091560;28;20378;-62
2024/01/06 07:58:52;;;;;;;;;;;1.40;99.90;;;;;;5095130;28;19957;-62
2024/01/06 08:01:18;;;;;;;;;;;1.40;99.90;;;;;;5077470;28;20372;-62
2024/01/06 08:03:44;;;;;;;;;;;1.40;99.90;;;;;;5091721;28;19928;-62
2024/01/06 08:06:09;;;;;;;;;;;1.40;99.90;;;;;;5090715;27;19934;-63
2024/01/06 08:08:35;;;;;;;;;;;1.40;99.90;;;;;;5066986;28;19927;-61
2024/01/06 08:11:01;;;;;;;;;;;1.40;99.90;;;;;;5106703;27;20290;-62
2024/01/06 08:13:26;;;;;;;;;;;1.40;99.90;;;;;;5089790;28;19932;-62
2024/01/06 08:15:52;;;;;;;;;;;1.40;99.90;;;;;;5085806;28;20439;-63
2024/01/06 08:18:18;;;;;;;;;;;1.40;99.90;;;;;;5087737;28;19924;-62
2024/01/06 08:20:43;;;;;;;;;;;1.40;99.90;;;;;;5085599;28;20019;-62
2024/01/06 08:23:10;;;;;;;;;;;1.40;99.90;;;;;;5090384;28;19924;-62
2024/01/06 08:25:36;;;;;;;;;;;1.40;99.90;;;;;;5072242;28;20412;-63
2024/01/06 08:28:02;;;;;;;;;;;1.40;99.90;;;;;;5087020;28;19927;-61
2024/01/06 08:30:27;;;;;;;;;;;1.50;99.90;;;;;;5075610;28;20002;-62
2024/01/06 08:32:53;;;;;;;;;;;1.40;99.90;;;;;;5090609;28;19963;-62
2024/01/06 08:35:19;;;;;;;;;;;1.50;99.90;;;;;;5082886;28;20378;-62
2024/01/06 08:37:45;;;;;;;;;;;1.50;99.90;;;;;;5086786;28;20374;-63
2024/01/06 08:40:11;;;;;;;;;;;1.70;99.90;;;;;;5053343;28;19927;-63
2024/01/06 08:42:36;;;;;;;;;;;1.50;99.90;;;;;;5074205;28;19924;-62
2024/01/06 08:45:02;;;;;;;;;;;1.50;99.90;;;;;;5077833;28;20201;-62
2024/01/06 08:47:28;;;;;;;;;;;1.50;99.90;;;;;;5057126;28;19928;-61
2024/01/06 08:49:53;;;;;;;;;;;1.50;99.90;;;;;;5068800;28;19928;-61
2024/01/06 08:52:19;;;;;;;;;;;1.50;99.90;;;;;;5082762;27;19949;-62
2024/01/06 08:54:44;;;;;;;;;;;1.60;99.90;;;;;;5102046;27;20465;-62
2024/01/06 08:57:10;;;;;;;;;;;1.50;99.90;;;;;;5078457;27;19923;-62
2024/01/06 08:59:36;;;;;;;;;;;1.60;99.90;;;;;;5066494;27;19924;-62
2024/01/06 09:02:02;;;;;;;;;;;1.60;99.90;;;;;;5080826;27;20418;-63
2024/01/06 09:04:28;;;;;;;;;;;1.60;99.90;;;;;;5084827;28;20058;-63
2024/01/06 09:06:53;;;;;;;;;;;1.60;99.90;;;;;;5079055;27;19963;-62
2024/01/06 09:09:19;;;;;;;;;;;1.60;99.90;;;;;;5081553;28;19945;-63
2024/01/06 09:11:46;;;;;;;;;;;1.60;99.90;;;;;;5080508;27;19927;-62
2024/01/06 09:14:11;;;;;;;;;;;1.60;99.90;;;;;;5102092;27;19931;-62
2024/01/06 09:16:37;;;;;;;;;;;1.70;99.90;;;;;;5081565;27;19923;-62
2024/01/06 09:19:02;;;;;;;;;;;1.70;99.90;;;;;;5081646;27;19982;-63
2024/01/06 09:21:28;;;;;;;;;;;1.70;99.90;;;;;;5103230;27;20444;-63
2024/01/06 09:23:53;;;;;;;;;;;1.70;99.90;;;;;;5081187;27;19923;-62
2024/01/06 09:26:19;;;;;;;;;;;1.70;99.90;;;;;;5085602;27;19923;-62
2024/01/06 09:28:45;;;;;;;;;;;1.70;99.90;;;;;;5087073;28;19928;-63
2024/01/06 09:31:10;;;;;;;;;;;1.70;99.90;;;;;;5080776;28;19945;-63
2024/01/06 09:33:36;;;;;;;;;;;1.70;99.90;;;;;;5069304;27;19923;-62
2024/01/06 09:36:02;;;;;;;;;;;1.70;99.90;;;;;;5092299;28;19934;-62
2024/01/06 09:38:27;;;;;;;;;;;1.70;99.90;;;;;;5075545;28;19924;-62
2024/01/06 09:40:53;;;;;;;;;;;1.70;99.90;;;;;;5089656;28;19927;-62
2024/01/06 09:43:19;;;;;;;;;;;1.70;99.90;;;;;;5098562;28;20002;-62
2024/01/06 09:45:53;;;;;;;;;;;1.80;99.90;;;;;;5084050;28;19932;-62
2024/01/06 09:48:20;;;;;;;;;;;1.70;99.90;;;;;;5096343;28;19927;-62
2024/01/06 09:50:45;;;;;;;;;;;1.80;99.90;;;;;;5081413;28;19939;-62
2024/01/06 09:53:11;;;;;;;;;;;1.80;99.90;;;;;;5083555;28;19924;-61
2024/01/06 09:55:38;;;;;;;;;;;1.80;99.90;;;;;;5082702;28;20414;-62
2024/01/06 09:58:04;;;;;;;;;;;1.80;99.90;;;;;;5081927;28;19924;-63
2024/01/06 10:00:30;;;;;;;;;;;1.80;99.90;;;;;;5086997;28;19924;-62
2024/01/06 10:02:56;;;;;;;;;;;1.80;99.90;;;;;;5082949;28;19977;-63
2024/01/06 10:05:21;;;;;;;;;;;1.80;99.90;;;;;;5083958;28;19935;-61
2024/01/06 10:07:47;;;;;;;;;;;1.80;99.90;;;;;;5083103;28;20060;-62
2024/01/06 10:10:13;;;;;;;;;;;1.80;99.90;;;;;;5089777;28;19923;-62
2024/01/06 10:12:40;;;;;;;;;;;1.80;99.90;;;;;;5085592;28;19986;-62
2024/01/06 10:15:06;;;;;;;;;;;1.80;99.90;;;;;;5078739;28;20424;-61
2024/01/06 10:17:32;;;;;;;;;;;1.80;99.90;;;;;;5082584;28;20011;-62
2024/01/06 10:19:59;;;;;;;;;;;1.80;99.90;;;;;;5082208;28;19924;-63
2024/01/06 10:22:24;;;;;;;;;;;1.80;99.90;;;;;;5080363;28;19985;-63
2024/01/06 10:24:50;;;;;;;;;;;1.90;99.90;;;;;;5083697;28;20527;-62
2024/01/06 10:27:16;;;;;;;;;;;1.90;99.90;;;;;;5083064;28;19927;-62
2024/01/06 10:29:42;;;;;;;;;;;2.00;99.90;;;;;;5077759;28;20623;-61
2024/01/06 10:32:08;;;;;;;;;;;2.00;99.90;;;;;;5061465;28;19966;-62
2024/01/06 10:34:36;;;;;;;;;;;2.00;99.90;;;;;;5079278;28;19949;-62
2024/01/06 10:37:02;;;;;;;;;;;2.00;99.90;;;;;;5081541;28;19924;-63
2024/01/06 10:39:29;;;;;;;;;;;2.00;99.90;;;;;;5068226;28;20320;-62
2024/01/06 10:41:55;;;;;;;;;;;2.10;99.90;;;;;;5072285;28;19934;-63
2024/01/06 10:44:21;;;;;;;;;;;2.10;99.90;;;;;;5081152;28;19927;-63
2024/01/06 10:46:47;;;;;;;;;;;2.10;99.90;;;;;;5080830;28;19924;-63
2024/01/06 10:49:14;;;;;;;;;;;2.20;99.90;;;;;;5098724;28;20355;-63
2024/01/06 10:51:40;;;;;;;;;;;2.20;99.90;;;;;;5078143;28;19980;-62
2024/01/06 10:54:06;;;;;;;;;;;2.20;99.90;;;;;;5082436;28;19927;-62
2024/01/06 10:56:36;;;;;;;;;;;2.30;99.90;;;;;;5049745;28;19971;-63
2024/01/06 10:59:03;;;;;;;;;;;2.20;99.90;;;;;;5060546;28;20371;-62
2024/01/06 11:01:29;;;;;;;;;;;2.20;99.90;;;;;;5073647;27;19928;-62
2024/01/06 11:03:55;;;;;;;;;;;2.20;99.90;;;;;;5078289;28;19958;-62
2024/01/06 11:06:21;;;;;;;;;;;2.30;99.90;;;;;;5079885;28;19927;-63
2024/01/06 11:08:52;;;;;;;;;;;2.30;99.90;;;;;;5072850;28;20290;-62
2024/01/06 11:11:19;;;;;;;;;;;2.30;99.90;;;;;;5075302;28;20034;-62
2024/01/06 11:13:46;;;;;;;;;;;2.40;99.90;;;;;;5072128;28;19970;-63
2024/01/06 11:16:32;;;;;;;;;;;2.30;99.90;;;;;;5074884;28;19927;-63
2024/01/06 11:18:57;;;;;;;;;;;2.30;99.90;;;;;;5080609;28;19923;-61
2024/01/06 11:21:25;;;;;;;;;;;2.40;99.90;;;;;;5076077;28;19927;-62
2024/01/06 11:24:06;;;;;;;;;;;2.30;99.90;;;;;;5068543;28;20026;-62
2024/01/06 11:26:31;;;;;;;;;;;2.40;99.90;;;;;;5075560;28;19935;-62
2024/01/06 11:28:58;;;;;;;;;;;2.40;99.90;;;;;;5080785;28;19928;-62
2024/01/06 11:31:28;;;;;;;;;;;2.40;99.90;;;;;;5075414;27;19924;-60
2024/01/06 11:33:54;;;;;;;;;;;2.40;99.90;;;;;;5074773;28;19935;-62
2024/01/06 11:36:19;;;;;;;;;;;2.30;99.90;;;;;;5075588;28;21221;-62
2024/01/06 11:38:50;;;;;;;;;;;2.30;99.90;;;;;;5081114;28;19935;-62
2024/01/06 11:41:34;;;;;;;;;;;2.30;99.90;;;;;;5075907;27;20431;-60
2024/01/06 11:44:00;;;;;;;;;;;2.30;99.90;;;;;;5074392;28;19938;-58
2024/01/06 11:46:26;;;;;;;;;;;2.30;99.90;;;;;;5081906;28;19932;-59
2024/01/06 11:48:53;;;;;;;;;;;2.20;99.90;;;;;;5075820;28;19936;-60
2024/01/06 11:51:18;;;;;;;;;;;2.20;99.90;;;;;;5074051;28;21900;-60
2024/01/06 11:53:45;;;;;;;;;;;2.20;99.90;;;;;;5072037;28;19928;-58
2024/01/06 11:56:11;;;;;;;;;;;2.20;99.90;;;;;;5072886;28;19928;-59
2024/01/06 11:58:39;;;;;;;;;;;2.20;99.90;;;;;;5074512;28;20453;-59
2024/01/06 12:01:04;;;;;;;;;;;2.20;99.90;;;;;;5078866;28;19928;-59
2024/01/06 12:03:30;;;;;;;;;;;2.10;99.90;;;;;;5054645;28;20328;-59
2024/01/06 12:06:01;;;;;;;;;;;2.10;99.90;;;;;;5075926;28;19927;-58
2024/01/06 12:08:27;;;;;;;;;;;2.10;99.90;;;;;;5075435;28;20381;-59
2024/01/06 12:11:01;;;;;;;;;;;2.10;99.90;;;;;;5070648;28;25885;-59
2024/01/06 12:13:27;;;;;;;;;;;2.10;99.90;;;;;;5058473;28;19923;-59
2024/01/06 12:15:52;;;;;;;;;;;2.10;99.90;;;;;;5073473;28;19934;-58
2024/01/06 12:18:18;;;;;;;;;;;2.10;99.90;;;;;;5076390;28;19958;-60
2024/01/06 12:20:45;;;;;;;;;;;2.00;99.90;;;;;;5073289;28;20562;-58
2024/01/06 12:23:10;;;;;;;;;;;2.10;99.90;;;;;;5069876;28;19924;-60
2024/01/06 12:25:36;;;;;;;;;;;2.00;99.90;;;;;;5054329;28;20081;-60
2024/01/06 12:28:02;;;;;;;;;;;2.00;99.90;;;;;;5053479;28;20540;-58
2024/01/06 12:30:30;;;;;;;;;;;2.00;99.90;;;;;;5079181;28;20023;-60
2024/01/06 12:32:55;;;;;;;;;;;2.00;99.90;;;;;;5060180;28;19970;-58
2024/01/06 12:35:22;;;;;;;;;;;1.90;99.90;;;;;;5059209;28;20381;-59
2024/01/06 12:37:48;;;;;;;;;;;1.90;99.90;;;;;;5079522;28;19928;-58
2024/01/06 12:40:16;;;;;;;;;;;1.90;99.90;;;;;;5067334;28;19924;-60
2024/01/06 12:42:42;;;;;;;;;;;1.90;99.90;;;;;;5085677;28;19928;-58
2024/01/06 12:45:08;;;;;;;;;;;1.90;99.90;;;;;;5057575;28;20287;-59
2024/01/06 12:47:33;;;;;;;;;;;1.90;99.90;;;;;;5076348;28;19935;-58
2024/01/06 12:49:59;;;;;;;;;;;1.90;99.90;;;;;;5058695;28;19934;-60
2024/01/06 12:52:25;;;;;;;;;;;1.80;99.90;;;;;;5080573;28;19932;-59
2024/01/06 12:54:50;;;;;;;;;;;1.80;99.90;;;;;;5077481;28;19967;-59
2024/01/06 12:57:16;;;;;;;;;;;1.80;99.90;;;;;;5079079;28;19972;-59
2024/01/06 12:59:41;;;;;;;;;;;1.80;99.90;;;;;;5077534;28;19924;-59
2024/01/06 13:02:07;;;;;;;;;;;1.80;99.90;;;;;;5078845;28;19930;-57
2024/01/06 13:04:34;;;;;;;;;;;1.80;99.90;;;;;;5083659;28;19932;-58
2024/01/06 13:07:00;;;;;;;;;;;1.80;99.90;;;;;;5078568;28;19928;-60
2024/01/06 13:09:26;;;;;;;;;;;1.80;99.90;;;;;;5071026;28;19932;-58
2024/01/06 13:11:52;;;;;;;;;;;1.80;99.90;;;;;;5076061;28;20013;-60
2024/01/06 13:14:18;;;;;;;;;;;1.80;99.90;;;;;;5077060;28;19923;-58
2024/01/06 13:16:44;;;;;;;;;;;1.80;99.90;;;;;;5074236;28;19920;-59
2024/01/06 13:19:09;;;;;;;;;;;1.80;99.90;;;;;;5080136;28;20301;-58
2024/01/06 13:21:35;;;;;;;;;;;1.80;99.90;;;;;;5079733;28;19927;-59
2024/01/06 13:24:04;;;;;;;;;;;1.80;99.90;;;;;;5076963;28;19934;-58
2024/01/06 13:26:29;;;;;;;;;;;1.80;99.90;;;;;;5074413;28;19924;-59
2024/01/06 13:28:55;;;;;;;;;;;1.80;99.90;;;;;;5079673;28;19950;-59
2024/01/06 13:31:21;;;;;;;;;;;1.70;99.90;;;;;;5083092;28;19975;-59
2024/01/06 13:33:46;;;;;;;;;;;1.70;99.90;;;;;;5089374;28;19927;-59
2024/01/06 13:36:12;;;;;;;;;;;1.70;99.90;;;;;;5087968;28;19949;-58
2024/01/06 13:38:38;;;;;;;;;;;1.70;99.90;;;;;;5088034;28;19923;-59
2024/01/06 13:41:04;;;;;;;;;;;1.70;99.90;;;;;;5078560;28;19954;-59
2024/01/06 13:43:29;;;;;;;;;;;1.70;99.90;;;;;;5079209;28;19928;-59
2024/01/06 13:45:55;;;;;;;;;;;1.70;99.90;;;;;;5076875;28;20593;-58
2024/01/06 13:48:21;;;;;;;;;;;1.70;99.90;;;;;;5070659;28;20338;-58
2024/01/06 13:50:47;;;;;;;;;;;1.60;99.90;;;;;;5077179;28;19927;-57
2024/01/06 13:53:13;;;;;;;;;;;1.60;99.90;;;;;;5077911;28;19928;-59
2024/01/06 13:55:38;;;;;;;;;;;1.60;99.90;;;;;;5074683;28;20000;-59
2024/01/06 13:58:04;;;;;;;;;;;1.60;99.90;;;;;;5075541;28;19935;-59
2024/01/06 14:00:30;;;;;;;;;;;1.60;99.90;;;;;;5072426;28;19923;-58
2024/01/06 14:02:56;;;;;;;;;;;1.60;99.90;;;;;;5060774;28;19923;-57
2024/01/06 14:05:22;;;;;;;;;;;1.50;99.90;;;;;;5078675;28;19990;-57
2024/01/06 14:07:50;;;;;;;;;;;1.50;99.90;;;;;;5071714;28;19923;-58
2024/01/06 14:10:16;;;;;;;;;;;1.50;99.90;;;;;;5070899;28;19924;-56
2024/01/06 14:12:41;;;;;;;;;;;1.50;99.90;;;;;;5064220;28;19924;-59
2024/01/06 14:15:08;;;;;;;;;;;1.50;99.90;;;;;;5068044;28;20412;-56
2024/01/06 14:17:34;;;;;;;;;;;1.40;99.90;;;;;;5068659;28;19949;-57
2024/01/06 14:19:59;;;;;;;;;;;1.40;99.90;;;;;;5072676;28;20456;-60
2024/01/06 14:22:26;;;;;;;;;;;1.40;99.90;;;;;;5058366;28;20000;-58
2024/01/06 14:24:51;;;;;;;;;;;1.40;99.90;;;;;;5054728;28;19939;-57